METAR LOCAUX

2020/01/21 06:30 LFST 210630Z AUTO 36003KT 9000 NSC M02/M03 Q1041 TEMPO BKN005
2020/01/21 06:20 EDSB 210620Z 09002KT 8000 NSC M03/M03 Q1041
2020/01/21 06:30 LFGA 210630Z AUTO VRB02KT CAVOK M04/M06 Q1041
www.noaa.gov

Ne pas utiliser pour préparer ou effectuer un vol: Utilisez la documentation officielle disponible sur aviation.meteo.fr (Aéroweb)


"Le soleil du matin ne dure pas forcément toute la journée."

Animation satellite IR

Meteociel.fr

"Derrière chaque nuage se cache le ciel bleu."

Radar pluie

Infoclimat.fr

"Si tu veux l’arc-en-ciel, tu dois supporter la pluie."
Dolly Parton

Nébulosité (octas)

Meteociel.fr

"Le soleil est souvent obscurci par les nuages et la raison par les passions."
Démophile

Impacts de foudre

www.meteo60.fr

"Celui que frappe la foudre n'entend pas le tonnerre."

Vigilance météo

vigilance-meteo.fr

"Tout nuage n'enfante pas une tempête."
William Shakespeare

TAF locaux

2020/01/21 06:21 TAF LFST 210500Z 2106/2206 33005KT CAVOK PROB40 TEMPO 2106/2110 BKN005 PROB40 2200/2206 BKN005
2020/01/21 06:27 TAF EDSB 210500Z 2106/2206 02004KT CAVOK BECMG 2115/2119 4000 BR BKN012 BECMG 2121/2201 0800 FZFG OVC003 TEMPO 2201/2206 0100 OVC001
www.noaa.gov

Ne pas utiliser pour préparer ou effectuer un vol: Utilisez la documentation officielle disponible sur aviation.meteo.fr (Aéroweb)


"Les jours où le ciel est gris, le soleil n'a pas disparu à tout jamais."
Arnaud Desjardins

Prévisions 7 jours


Meteoblue.com

"Quand les crapauds chantent, le beau temps s'avance !"